Time;durP1;ratioP1;P1;durP2;ratioP2;P2;SDS_P1;SDS_P2;PMS_P1;PMS_P2;Temp;Humidity;BMP_temperature;BMP_pressure;BME280_temperature;BME280_humidity;BME280_pressure;Samples;Min_cycle;Max_cycle;Signal;HPM_P1;HPM_P2
2021/01/18 00:01:34;;;;;;;38.97;14.55;;;;;;;12.05;15.18;98596.94;5090526;28;20365;-76
2021/01/18 00:04:01;;;;;;;46.83;17.85;;;;;;;12.45;14.84;98598.69;5090880;28;20122;-76
2021/01/18 00:06:27;;;;;;;39.67;16.25;;;;;;;12.77;14.62;98596.97;5088214;28;20585;-76
2021/01/18 00:08:53;;;;;;;39.92;16.75;;;;;;;12.71;14.38;98595.59;5091274;28;20039;-76
2021/01/18 00:11:21;;;;;;;44.00;16.40;;;;;;;12.73;14.35;98593.28;5090895;28;20035;-76
2021/01/18 00:13:48;;;;;;;47.67;17.60;;;;;;;12.47;14.70;98587.34;5086065;28;20060;-76
2021/01/18 00:16:15;;;;;;;39.55;17.20;;;;;;;12.26;15.14;98603.16;5091452;28;20031;-76
2021/01/18 00:18:42;;;;;;;51.95;19.35;;;;;;;11.54;15.83;98593.56;5088913;28;20032;-76
2021/01/18 00:21:08;;;;;;;50.42;18.63;;;;;;;12.04;15.51;98590.63;5085426;28;20035;-76
2021/01/18 00:23:38;;;;;;;48.97;17.42;;;;;;;11.10;16.27;98608.00;5082521;28;20037;-76
2021/01/18 00:26:05;;;;;;;51.38;18.90;;;;;;;12.03;15.30;98597.28;5087611;28;20070;-76
2021/01/18 00:28:31;;;;;;;55.05;18.83;;;;;;;12.61;14.88;98606.25;5065532;28;20076;-76
2021/01/18 00:30:59;;;;;;;48.03;18.00;;;;;;;13.09;14.35;98604.28;5090885;28;20040;-76
2021/01/18 00:33:26;;;;;;;48.92;19.67;;;;;;;12.98;14.54;98607.84;5085453;28;20036;-76
2021/01/18 00:35:52;;;;;;;55.47;22.92;;;;;;;12.40;14.92;98611.88;5092653;28;20039;-76
2021/01/18 00:38:18;;;;;;;56.38;20.70;;;;;;;12.74;14.94;98608.66;5094679;28;21242;-76
2021/01/18 00:40:44;;;;;;;66.60;22.35;;;;;;;10.53;16.21;98610.47;5091718;28;20480;-76
2021/01/18 00:43:10;;;;;;;51.88;20.30;;;;;;;10.85;16.23;98612.53;5085053;28;20028;-76
2021/01/18 00:45:36;;;;;;;53.75;17.42;;;;;;;9.74;17.20;98619.28;5095693;28;20040;-76
2021/01/18 00:48:02;;;;;;;56.80;18.88;;;;;;;10.25;16.54;98621.09;5093282;28;20028;-76
2021/01/18 00:50:30;;;;;;;43.28;15.60;;;;;;;7.79;18.82;98632.25;5086661;28;20032;-76
2021/01/18 00:52:58;;;;;;;33.15;12.82;;;;;;;8.62;18.65;98636.00;5089813;28;20044;-76
2021/01/18 00:55:25;;;;;;;44.28;15.75;;;;;;;10.29;16.78;98635.75;5086945;28;20024;-76
2021/01/18 00:57:51;;;;;;;39.25;14.38;;;;;;;10.21;16.46;98627.56;5085093;28;20062;-76
2021/01/18 01:00:23;;;;;;;37.70;13.80;;;;;;;10.45;15.95;98641.53;5081612;28;20512;-76
2021/01/18 01:02:52;;;;;;;43.50;14.75;;;;;;;10.19;16.81;98644.38;5091180;28;20032;-76
2021/01/18 01:05:24;;;;;;;36.03;13.35;;;;;;;10.20;16.59;98643.22;5093759;28;20035;-76
2021/01/18 01:07:57;;;;;;;36.13;14.00;;;;;;;10.84;15.86;98651.31;5094126;28;20538;-76
2021/01/18 01:10:30;;;;;;;38.67;14.52;;;;;;;10.26;16.28;98646.59;5094044;28;20034;-76
2021/01/18 01:13:01;;;;;;;37.80;13.75;;;;;;;10.98;15.39;98643.63;5090157;28;20035;-76
2021/01/18 01:15:28;;;;;;;45.17;16.02;;;;;;;10.32;15.98;98650.75;5092047;28;20182;-76
2021/01/18 01:17:54;;;;;;;36.75;13.40;;;;;;;10.16;16.49;98646.94;5088747;28;20036;-76
2021/01/18 01:20:22;;;;;;;48.45;17.27;;;;;;;9.89;16.45;98645.38;5089043;28;20476;-76
2021/01/18 01:22:48;;;;;;;46.47;16.45;;;;;;;8.84;17.53;98635.91;5085809;28;20119;-75
2021/01/18 01:25:19;;;;;;;36.28;14.65;;;;;;;10.24;16.81;98635.97;5094889;28;20064;-77
2021/01/18 01:27:46;;;;;;;43.85;14.93;;;;;;;10.38;16.10;98636.53;5084377;28;20033;-76
2021/01/18 01:30:18;;;;;;;37.72;14.10;;;;;;;10.65;15.64;98629.78;5089630;28;20028;-76
2021/01/18 01:32:47;;;;;;;44.35;14.45;;;;;;;11.13;15.32;98631.25;5093807;28;20484;-76
2021/01/18 01:35:14;;;;;;;46.92;17.23;;;;;;;11.49;15.13;98626.75;5093217;28;20065;-76
2021/01/18 01:37:40;;;;;;;45.80;17.98;;;;;;;11.53;14.97;98635.94;5076317;28;20035;-76
2021/01/18 01:40:08;;;;;;;46.88;16.20;;;;;;;12.21;14.72;98628.16;5094129;28;20090;-76
2021/01/18 01:42:35;;;;;;;36.90;13.40;;;;;;;13.15;13.88;98626.91;5079669;28;20488;-75
2021/01/18 01:45:03;;;;;;;42.65;15.68;;;;;;;13.39;13.63;98632.38;5092771;28;20093;-76
2021/01/18 01:47:41;;;;;;;43.35;14.68;;;;;;;11.43;14.71;98641.88;5077982;28;20032;-76
2021/01/18 01:50:18;;;;;;;39.95;13.57;;;;;;;11.58;14.70;98646.72;5088401;28;20032;-76
2021/01/18 01:53:05;;;;;;;39.38;13.20;;;;;;;12.49;14.38;98648.38;5088570;28;20044;-76
2021/01/18 01:55:32;;;;;;;38.22;13.57;;;;;;;12.36;14.15;98647.56;5076035;28;20089;-76
2021/01/18 01:58:00;;;;;;;36.65;14.40;;;;;;;12.87;14.12;98648.03;5092553;28;20036;-76
2021/01/18 02:00:37;;;;;;;40.83;15.25;;;;;;;13.01;13.74;98643.78;5074824;28;20020;-76
2021/01/18 02:03:07;;;;;;;41.67;13.40;;;;;;;12.51;14.31;98646.06;5091205;28;20028;-76
2021/01/18 02:05:33;;;;;;;43.30;16.98;;;;;;;12.20;14.46;98649.38;5090439;28;20066;-76
2021/01/18 02:08:01;;;;;;;33.17;12.07;;;;;;;10.48;15.66;98662.00;5093369;28;20114;-76
2021/01/18 02:10:27;;;;;;;40.33;13.93;;;;;;;10.15;16.26;98659.84;5093721;28;20032;-76
2021/01/18 02:12:57;;;;;;;45.22;15.35;;;;;;;8.19;18.22;98665.91;5093786;28;20039;-76
2021/01/18 02:15:41;;;;;;;49.17;16.85;;;;;;;8.98;17.42;98658.47;5090094;28;20028;-76
2021/01/18 02:18:23;;;;;;;46.45;15.43;;;;;;;9.20;17.14;98658.31;5078346;28;20040;-76
2021/01/18 02:21:19;;;;;;;43.20;15.27;;;;;;;10.79;15.99;98654.25;5091216;28;20165;-76
2021/01/18 02:23:48;;;;;;;38.88;13.50;;;;;;;11.50;15.31;98650.38;5073184;28;20169;-76
2021/01/18 02:26:59;;;;;;;34.65;13.05;;;;;;;11.38;14.85;98644.00;5092450;28;20468;-76
2021/01/18 02:29:31;;;;;;;40.45;13.05;;;;;;;11.39;15.21;98637.38;5086736;28;20029;-76
2021/01/18 02:32:00;;;;;;;40.63;14.50;;;;;;;11.87;14.51;98631.28;5084317;28;20033;-76
2021/01/18 02:34:47;;;;;;;37.85;13.10;;;;;;;11.39;15.13;98626.38;5093540;28;20051;-76
2021/01/18 02:37:27;;;;;;;56.83;16.85;;;;;;;10.37;15.55;98631.38;5084058;28;20036;-76
2021/01/18 02:40:11;;;;;;;36.08;12.90;;;;;;;11.13;15.34;98629.31;5091671;28;20471;-76
2021/01/18 02:42:53;;;;;;;38.80;13.90;;;;;;;11.42;15.00;98628.44;5087938;28;20040;-76
2021/01/18 02:45:22;;;;;;;35.70;13.00;;;;;;;11.87;14.58;98629.34;5084906;28;20039;-76
2021/01/18 02:47:50;;;;;;;34.33;12.55;;;;;;;12.80;14.09;98618.31;5086403;28;20488;-76
2021/01/18 02:50:17;;;;;;;38.58;13.73;;;;;;;13.29;13.46;98621.00;5088388;28;20429;-76
2021/01/18 02:52:44;;;;;;;36.35;14.85;;;;;;;12.90;13.59;98625.31;5091086;28;20051;-75
2021/01/18 02:55:12;;;;;;;42.75;14.23;;;;;;;12.16;14.28;98622.88;5080938;28;20029;-76
2021/01/18 02:57:43;;;;;;;45.47;15.05;;;;;;;11.97;14.54;98623.38;5088055;28;20063;-76
2021/01/18 03:00:18;;;;;;;41.88;14.70;;;;;;;12.95;13.51;98625.09;5083959;28;20111;-76
2021/01/18 03:03:28;;;;;;;42.35;16.35;;;;;;;13.38;13.37;98613.41;5089206;28;20020;-76
2021/01/18 03:06:10;;;;;;;35.45;13.70;;;;;;;12.96;13.38;98623.91;5059103;28;20040;-76
2021/01/18 03:08:49;;;;;;;44.83;15.18;;;;;;;13.17;13.38;98613.56;5091018;28;20035;-76
2021/01/18 03:11:41;;;;;;;40.03;14.00;;;;;;;13.53;13.13;98615.44;5090265;28;20036;-76
2021/01/18 03:14:15;;;;;;;33.22;11.38;;;;;;;14.05;12.98;98613.31;5070884;28;20123;-76
2021/01/18 03:16:46;;;;;;;35.00;13.45;;;;;;;14.10;12.72;98607.53;5090788;28;20064;-76
2021/01/18 03:19:14;;;;;;;37.65;12.88;;;;;;;13.82;13.10;98604.81;5087336;28;20028;-76
2021/01/18 03:21:47;;;;;;;32.47;11.25;;;;;;;14.18;12.77;98606.59;5087779;28;20510;-76
2021/01/18 03:24:21;;;;;;;28.63;12.57;;;;;;;14.26;12.69;98607.56;5086221;28;20028;-76
2021/01/18 03:26:48;;;;;;;32.45;12.73;;;;;;;13.35;13.29;98614.91;5091802;28;20123;-76
2021/01/18 03:29:14;;;;;;;29.80;11.65;;;;;;;14.02;13.01;98616.00;5087969;28;20036;-77
2021/01/18 03:31:40;;;;;;;27.88;11.07;;;;;;;13.38;13.11;98610.63;5090901;28;20074;-76
2021/01/18 03:34:06;;;;;;;25.65;9.75;;;;;;;13.56;13.25;98604.47;5089937;28;20035;-76
2021/01/18 03:36:32;;;;;;;27.75;9.90;;;;;;;14.25;12.66;98604.00;5087350;28;20060;-76
2021/01/18 03:38:59;;;;;;;24.15;9.77;;;;;;;14.69;12.53;98603.91;5089113;28;20036;-76
2021/01/18 03:41:25;;;;;;;28.70;11.13;;;;;;;15.22;12.00;98605.94;5090670;28;20396;-76
2021/01/18 03:43:51;;;;;;;24.55;9.43;;;;;;;15.35;12.02;98612.13;5091489;28;20043;-76
2021/01/18 03:46:17;;;;;;;24.75;9.63;;;;;;;15.51;11.80;98608.19;5087326;28;20024;-76
2021/01/18 03:48:43;;;;;;;27.35;10.35;;;;;;;15.54;11.88;98610.19;5082905;28;20037;-76
2021/01/18 03:51:09;;;;;;;24.98;10.45;;;;;;;15.44;11.85;98609.97;5088792;28;20515;-76
2021/01/18 03:53:35;;;;;;;25.15;10.18;;;;;;;15.11;11.95;98602.13;5089547;28;20400;-76
2021/01/18 03:56:02;;;;;;;24.13;10.73;;;;;;;14.35;12.36;98600.72;5089382;28;20123;-76
2021/01/18 03:58:28;;;;;;;25.05;10.32;;;;;;;13.59;13.06;98602.97;5091025;28;20395;-76
2021/01/18 04:00:54;;;;;;;23.80;10.13;;;;;;;13.86;13.17;98608.47;5084263;28;20106;-76
2021/01/18 04:03:20;;;;;;;23.40;9.35;;;;;;;14.29;12.67;98607.66;5083844;28;20039;-76
2021/01/18 04:05:46;;;;;;;22.38;9.02;;;;;;;15.01;12.27;98609.03;5084072;28;20097;-76
2021/01/18 04:08:13;;;;;;;23.25;9.10;;;;;;;15.19;11.91;98610.22;5086326;28;21136;-76
2021/01/18 04:10:40;;;;;;;23.95;9.35;;;;;;;14.28;12.61;98602.50;5086424;28;20549;-76
2021/01/18 04:13:06;;;;;;;27.27;10.13;;;;;;;14.29;12.48;98604.06;5085604;28;20028;-76
2021/01/18 04:15:32;;;;;;;25.35;9.57;;;;;;;14.26;12.86;98602.81;5075633;28;20089;-76
2021/01/18 04:17:58;;;;;;;27.38;9.80;;;;;;;14.26;12.67;98602.06;5086013;28;20468;-76
2021/01/18 04:20:25;;;;;;;19.85;8.55;;;;;;;14.51;12.51;98595.22;5089626;28;20082;-76
2021/01/18 04:22:56;;;;;;;33.63;11.55;;;;;;;15.17;12.06;98600.69;5062070;28;20473;-76
2021/01/18 04:25:25;;;;;;;20.35;9.02;;;;;;;14.87;12.32;98585.78;5090767;28;20032;-77
2021/01/18 04:27:53;;;;;;;23.95;9.50;;;;;;;14.66;12.46;98591.63;5084220;28;20044;-76
2021/01/18 04:30:21;;;;;;;26.02;8.80;;;;;;;14.35;12.81;98586.91;5066617;28;20191;-76
2021/01/18 04:33:03;;;;;;;17.75;7.22;;;;;;;14.52;12.59;98586.56;5067575;28;20723;-76
2021/01/18 04:35:30;;;;;;;19.42;7.63;;;;;;;14.86;12.38;98581.44;5064344;28;20044;-76
2021/01/18 04:37:57;;;;;;;33.63;9.85;;;;;;;15.01;12.16;98569.50;5065286;28;20040;-76
2021/01/18 04:40:25;;;;;;;23.80;9.45;;;;;;;14.39;12.36;98576.78;5067970;28;20044;-76
2021/01/18 04:42:52;;;;;;;27.30;9.38;;;;;;;14.11;12.73;98583.50;5085272;28;20052;-76
2021/01/18 04:45:21;;;;;;;26.73;10.57;;;;;;;13.32;13.06;98581.72;5081634;28;20035;-75
2021/01/18 04:47:50;;;;;;;25.30;9.23;;;;;;;13.77;13.00;98577.47;5085052;28;20447;-76
2021/01/18 04:50:18;;;;;;;27.77;9.65;;;;;;;13.73;13.21;98581.31;5084443;28;20031;-76
2021/01/18 04:52:44;;;;;;;27.95;9.52;;;;;;;12.63;13.74;98574.47;5087598;28;20495;-75
2021/01/18 04:55:23;;;;;;;44.42;13.88;;;;;;;13.14;13.71;98578.44;5081463;28;20085;-76
2021/01/18 04:58:04;;;;;;;31.77;11.60;;;;;;;13.46;13.11;98577.41;5084656;28;20039;-75
2021/01/18 05:00:39;;;;;;;31.33;10.20;;;;;;;13.95;13.11;98582.69;5088416;28;20040;-76
2021/01/18 05:03:07;;;;;;;19.38;8.82;;;;;;;14.50;12.50;98575.06;5089764;28;20512;-75
2021/01/18 05:05:44;;;;;;;30.27;11.52;;;;;;;14.46;12.68;98578.91;5073376;28;20020;-76
2021/01/18 05:08:33;;;;;;;36.63;12.20;;;;;;;14.52;12.38;98577.47;5057440;28;20036;-75
2021/01/18 05:11:01;;;;;;;27.13;10.20;;;;;;;14.28;12.69;98580.41;5079762;28;20028;-75
2021/01/18 05:13:30;;;;;;;27.75;10.20;;;;;;;14.72;12.41;98576.38;5071108;28;20094;-76
2021/01/18 05:16:02;;;;;;;30.88;10.98;;;;;;;13.97;12.67;98580.38;5091294;28;20032;-76
2021/01/18 05:18:34;;;;;;;31.17;11.63;;;;;;;13.90;12.91;98580.97;5067609;28;20033;-75
2021/01/18 05:21:05;;;;;;;31.35;12.13;;;;;;;13.24;13.29;98579.91;5087757;28;20476;-76
2021/01/18 05:23:41;;;;;;;31.23;11.90;;;;;;;13.68;13.20;98584.31;5092619;28;20028;-75
2021/01/18 05:26:21;;;;;;;29.70;10.98;;;;;;;14.33;12.58;98592.00;5091491;28;20117;-75
2021/01/18 05:28:48;;;;;;;37.20;12.18;;;;;;;14.98;12.26;98593.16;5086978;28;20039;-75
2021/01/18 05:31:35;;;;;;;35.20;13.10;;;;;;;14.72;12.12;98601.25;5086469;28;20043;-76
2021/01/18 05:34:15;;;;;;;33.65;12.55;;;;;;;14.83;12.18;98602.28;5083883;28;20036;-75
2021/01/18 05:36:49;;;;;;;29.38;11.73;;;;;;;14.71;12.31;98602.41;5087177;28;20126;-77
2021/01/18 05:39:21;;;;;;;32.78;11.98;;;;;;;14.90;12.20;98607.19;5092447;28;20036;-76
2021/01/18 05:41:52;;;;;;;29.38;11.38;;;;;;;14.84;12.12;98608.63;5090771;28;20047;-76
2021/01/18 05:44:19;;;;;;;27.42;10.80;;;;;;;14.23;12.56;98605.50;5090754;28;20040;-75
2021/01/18 05:46:47;;;;;;;27.98;11.85;;;;;;;14.12;12.63;98598.91;5087776;28;20036;-76
2021/01/18 05:49:19;;;;;;;22.90;8.02;;;;;;;14.74;12.33;98598.94;5092556;28;20031;-75
2021/01/18 05:51:52;;;;;;;26.65;10.48;;;;;;;15.21;11.67;98602.38;5090791;28;20162;-77
2021/01/18 05:54:23;;;;;;;25.55;10.07;;;;;;;15.26;11.56;98603.25;5089113;28;20149;-75
2021/01/18 05:56:51;;;;;;;;;;;;;;;15.22;11.54;98603.97;5087230;28;20127;-76
2021/01/18 05:59:22;;;;;;;30.73;10.13;;;;;;;15.62;11.50;98602.84;5093419;28;20053;-76
2021/01/18 06:01:50;;;;;;;24.42;9.25;;;;;;;15.87;11.22;98595.81;5086252;28;20510;-76
2021/01/18 06:04:19;;;;;;;30.42;10.23;;;;;;;16.04;10.98;98594.56;5085245;28;20111;-76
2021/01/18 06:06:54;;;;;;;32.42;12.50;;;;;;;15.99;11.07;98594.88;5091501;28;20034;-76
2021/01/18 06:09:21;;;;;;;31.95;13.05;;;;;;;16.09;10.95;98599.81;5089852;28;20111;-77
2021/01/18 06:11:47;;;;;;;37.30;14.45;;;;;;;16.25;10.66;98594.94;5081653;28;20028;-77
2021/01/18 06:14:13;;;;;;;33.78;13.13;;;;;;;16.17;10.75;98604.31;5089298;28;20028;-77
2021/01/18 06:16:40;;;;;;;30.20;10.57;;;;;;;16.22;10.71;98604.78;5088939;28;20032;-76
2021/01/18 06:19:08;;;;;;;22.55;9.48;;;;;;;16.17;10.65;98612.63;5091721;28;20024;-77
2021/01/18 06:21:41;;;;;;;20.60;9.40;;;;;;;16.16;10.46;98599.94;5088797;28;20036;-77
2021/01/18 06:24:24;;;;;;;29.90;11.23;;;;;;;16.13;10.32;98595.13;5092720;28;20168;-76
2021/01/18 06:26:51;;;;;;;25.00;8.88;;;;;;;16.06;10.44;98603.31;5090390;28;20032;-77
2021/01/18 06:29:40;;;;;;;29.70;11.63;;;;;;;15.73;10.47;98590.81;5087380;28;20035;-77
2021/01/18 06:32:09;;;;;;;29.95;11.65;;;;;;;15.48;10.49;98603.38;5088534;28;20039;-77
2021/01/18 06:34:36;;;;;;;24.52;11.32;;;;;;;14.76;10.94;98604.91;5089318;28;20111;-77
2021/01/18 06:37:02;;;;;;;25.17;11.40;;;;;;;14.43;11.04;98608.03;5079070;28;20460;-78
2021/01/18 06:39:30;;;;;;;30.23;13.18;;;;;;;14.16;11.47;98606.13;5084623;28;20111;-77
2021/01/18 06:42:03;;;;;;;27.10;10.32;;;;;;;13.98;11.42;98610.38;5088646;28;20085;-76
2021/01/18 06:44:35;;;;;;;26.80;10.93;;;;;;;13.79;11.32;98607.50;5092755;28;20055;-76
2021/01/18 06:47:01;;;;;;;22.67;9.70;;;;;;;13.71;11.51;98612.00;5086080;28;20032;-76
2021/01/18 06:49:28;;;;;;;29.63;11.40;;;;;;;13.96;11.35;98611.88;5084362;28;20484;-76
2021/01/18 06:51:58;;;;;;;23.17;10.55;;;;;;;14.37;10.86;98614.19;5074801;28;20508;-76
2021/01/18 06:54:29;;;;;;;26.63;10.65;;;;;;;14.71;10.58;98612.66;5083547;28;22284;-75
2021/01/18 06:57:18;;;;;;;30.95;12.95;;;;;;;14.70;10.48;98613.81;5086431;28;20089;-76
2021/01/18 06:59:51;;;;;;;26.13;10.20;;;;;;;14.71;10.30;98615.41;5085857;28;20039;-76
2021/01/18 07:02:29;;;;;;;27.83;10.88;;;;;;;14.29;10.58;98621.47;5087031;28;20128;-76
2021/01/18 07:05:06;;;;;;;26.17;11.05;;;;;;;14.00;10.92;98621.88;5086394;28;20032;-76
2021/01/18 07:07:35;;;;;;;28.25;10.90;;;;;;;13.90;10.96;98616.88;5082921;28;20032;-76
2021/01/18 07:10:05;;;;;;;26.77;10.27;;;;;;;14.19;10.53;98616.44;5082419;28;20031;-76
2021/01/18 07:12:31;;;;;;;31.45;12.40;;;;;;;14.48;10.39;98618.81;5081683;28;20128;-76
2021/01/18 07:15:09;;;;;;;33.33;12.88;;;;;;;14.56;10.18;98614.28;5085360;28;20151;-75
2021/01/18 07:17:52;;;;;;;29.67;12.65;;;;;;;14.55;10.05;98615.44;5065405;28;20039;-74
2021/01/18 07:20:28;;;;;;;26.90;11.48;;;;;;;14.59;10.02;98615.50;5085929;28;20858;-76
2021/01/18 07:23:03;;;;;;;28.80;10.98;;;;;;;14.63;10.03;98619.19;5088633;28;20464;-76
2021/01/18 07:25:35;;;;;;;28.17;11.75;;;;;;;14.27;10.10;98615.50;5090019;28;20028;-76
2021/01/18 07:28:04;;;;;;;25.65;10.27;;;;;;;13.85;10.55;98619.88;5084929;28;20031;-76
2021/01/18 07:30:31;;;;;;;20.90;9.07;;;;;;;13.85;10.53;98619.88;5082302;28;20491;-75
2021/01/18 07:33:09;;;;;;;23.00;8.13;;;;;;;14.17;10.30;98620.72;5083945;28;20554;-76
2021/01/18 07:35:36;;;;;;;19.98;8.32;;;;;;;14.60;10.07;98625.41;5079216;28;20075;-76
2021/01/18 07:38:27;;;;;;;31.08;11.20;;;;;;;14.80;10.12;98629.84;5088316;28;20028;-76
2021/01/18 07:41:12;;;;;;;25.50;11.18;;;;;;;14.76;10.19;98629.78;5064218;28;20423;-76
2021/01/18 07:43:47;;;;;;;27.30;11.57;;;;;;;14.93;9.79;98629.41;5085316;28;20039;-76
2021/01/18 07:46:28;;;;;;;32.08;13.88;;;;;;;15.09;9.98;98632.94;5069992;28;20028;-76
2021/01/18 07:49:21;;;;;;;35.40;12.68;;;;;;;15.35;9.70;98637.84;5083693;28;20523;-76
2021/01/18 07:51:47;;;;;;;35.08;12.70;;;;;;;15.52;9.80;98640.22;5045794;28;20052;-75
2021/01/18 07:54:32;;;;;;;49.28;17.65;;;;;;;15.29;9.88;98647.56;5082222;28;20492;-76
2021/01/18 07:57:25;;;;;;;42.60;16.52;;;;;;;15.33;9.92;98644.91;5089881;28;20037;-75
2021/01/18 08:00:17;;;;;;;35.13;13.73;;;;;;;15.52;10.01;98640.22;5088445;28;20112;-76
2021/01/18 08:02:48;;;;;;;37.30;14.38;;;;;;;15.62;9.98;98641.59;5078697;28;20029;-76
2021/01/18 08:05:47;;;;;;;42.47;16.73;;;;;;;15.54;9.67;98637.88;5065905;28;20483;-76
2021/01/18 08:08:16;;;;;;;42.30;14.50;;;;;;;15.72;9.81;98638.25;5044082;28;20457;-76
2021/01/18 08:10:58;;;;;;;41.88;15.07;;;;;;;15.75;9.86;98643.84;5081072;28;20487;-76
2021/01/18 08:13:53;;;;;;;35.17;14.80;;;;;;;15.88;9.67;98633.44;5079180;28;20040;-76
2021/01/18 08:16:37;;;;;;;35.80;13.40;;;;;;;15.97;9.60;98633.19;5087315;28;20024;-76
2021/01/18 08:19:24;;;;;;;29.13;12.38;;;;;;;16.08;9.59;98628.69;5088709;28;20551;-76
2021/01/18 08:21:58;;;;;;;36.30;14.43;;;;;;;15.90;9.65;98633.88;5089073;28;20029;-75
2021/01/18 08:24:27;;;;;;;36.92;14.88;;;;;;;15.86;9.93;98638.53;5080479;28;20059;-76
2021/01/18 08:27:01;;;;;;;33.60;14.30;;;;;;;15.91;9.85;98635.47;5087735;28;20024;-76
2021/01/18 08:29:43;;;;;;;36.58;14.95;;;;;;;15.67;9.79;98642.13;5083048;28;20059;-76
2021/01/18 08:32:24;;;;;;;33.33;14.18;;;;;;;15.69;9.84;98645.31;5081494;28;20043;-76
2021/01/18 08:34:58;;;;;;;39.58;13.57;;;;;;;16.02;9.72;98633.72;5089910;28;20040;-76
2021/01/18 08:37:26;;;;;;;46.25;16.73;;;;;;;16.26;9.58;98633.38;5087926;28;20028;-76
2021/01/18 08:39:53;;;;;;;32.40;15.05;;;;;;;16.21;9.79;98646.72;5087691;28;20063;-77
2021/01/18 08:42:25;;;;;;;40.20;14.57;;;;;;;16.29;9.66;98645.69;5090425;28;20075;-76
2021/01/18 08:44:59;;;;;;;39.17;13.75;;;;;;;16.34;9.55;98639.84;5087961;28;20108;-77
2021/01/18 08:47:42;;;;;;;29.05;12.45;;;;;;;16.42;9.50;98641.56;5072690;28;20032;-75
2021/01/18 08:50:28;;;;;;;39.55;15.75;;;;;;;16.53;9.59;98648.13;5086569;28;20066;-76
2021/01/18 08:53:00;;;;;;;29.73;12.95;;;;;;;16.58;9.64;98648.63;5081727;28;20509;-76
2021/01/18 08:55:29;;;;;;;38.13;14.18;;;;;;;16.75;9.42;98649.31;5073300;28;20102;-76
2021/01/18 08:57:59;;;;;;;33.00;13.10;;;;;;;16.73;9.55;98643.31;5086476;28;20040;-76
2021/01/18 09:00:43;;;;;;;38.00;14.23;;;;;;;16.62;9.50;98642.34;5084762;28;20075;-76
2021/01/18 09:03:18;;;;;;;33.95;14.40;;;;;;;16.68;9.45;98638.91;5084240;28;20027;-76
2021/01/18 09:05:46;;;;;;;31.95;13.73;;;;;;;16.89;9.35;98639.25;5084392;28;20115;-76
2021/01/18 09:08:14;;;;;;;38.25;16.83;;;;;;;16.95;9.46;98637.75;5086672;28;20088;-76
2021/01/18 09:10:50;;;;;;;34.88;15.95;;;;;;;17.02;9.50;98640.63;5084475;28;20441;-75
2021/01/18 09:31:23;;;;;;;76.53;29.00;;;;;;;17.14;10.52;98618.22;5078447;27;20928;-76
2021/01/18 09:33:52;;;;;;;49.40;19.42;;;;;;;17.80;9.33;98619.50;5074128;28;20048;-77
2021/01/18 09:36:20;;;;;;;47.30;19.38;;;;;;;17.74;9.45;98619.03;5071704;28;20035;-76
2021/01/18 09:38:47;;;;;;;45.65;19.17;;;;;;;18.08;9.68;98610.69;5056813;28;20144;-77
2021/01/18 09:41:14;;;;;;;43.42;18.25;;;;;;;18.47;9.38;98612.72;5061631;28;20446;-77
2021/01/18 09:43:42;;;;;;;44.25;16.60;;;;;;;18.65;9.27;98598.16;5065316;28;20033;-77
2021/01/18 09:46:09;;;;;;;38.85;15.48;;;;;;;18.90;9.09;98604.72;5058383;28;20029;-77
2021/01/18 09:48:37;;;;;;;37.15;15.63;;;;;;;19.43;8.62;98608.66;5058771;28;20053;-79
2021/01/18 09:51:05;;;;;;;43.63;17.27;;;;;;;19.69;8.49;98602.81;5058968;28;20547;-77
2021/01/18 09:53:32;;;;;;;58.33;21.55;;;;;;;19.49;8.52;98595.13;5055233;28;20418;-77
2021/01/18 09:56:04;;;;;;;51.25;21.35;;;;;;;19.24;8.66;98601.38;5054056;28;20030;-78
2021/01/18 09:58:30;;;;;;;113.10;41.38;;;;;;;19.07;8.98;98598.44;5059790;28;20048;-78
2021/01/18 10:00:57;;;;;;;66.47;26.20;;;;;;;19.48;8.68;98594.38;5058433;28;20551;-77
2021/01/18 10:03:32;;;;;;;96.15;38.25;;;;;;;19.82;8.56;98590.13;5056398;28;20071;-77
2021/01/18 10:06:15;;;;;;;83.82;32.20;;;;;;;20.20;8.41;98579.47;5066809;28;20032;-77
2021/01/18 10:08:44;;;;;;;55.40;22.42;;;;;;;20.07;8.46;98581.81;5069197;28;20033;-77
2021/01/18 10:11:10;;;;;;;42.97;16.75;;;;;;;19.91;8.62;98578.59;5062137;28;20028;-77
2021/01/18 10:13:36;;;;;;;41.10;15.32;;;;;;;19.87;8.87;98586.94;5057984;28;20034;-79
2021/01/18 10:16:11;;;;;;;44.95;17.60;;;;;;;19.82;8.52;98580.94;5066143;28;20037;-78
2021/01/18 10:18:44;;;;;;;45.20;17.85;;;;;;;20.23;8.52;98573.13;5062743;28;20024;-77
2021/01/18 10:21:12;;;;;;;38.08;17.05;;;;;;;20.52;8.61;98583.91;5060693;28;20028;-77
2021/01/18 10:23:48;;;;;;;34.30;13.80;;;;;;;20.73;8.37;98571.13;5060648;28;20040;-76
2021/01/18 10:26:17;;;;;;;45.00;16.77;;;;;;;20.89;8.31;98577.91;5059250;28;20035;-77
2021/01/18 10:29:05;;;;;;;43.90;16.33;;;;;;;21.01;7.76;98576.69;5069651;28;20032;-78
2021/01/18 10:31:33;;;;;;;32.53;13.40;;;;;;;21.17;8.09;98571.50;5055488;28;20389;-77
2021/01/18 10:34:10;;;;;;;32.75;14.43;;;;;;;21.48;8.00;98565.03;5055839;28;20025;-76
2021/01/18 10:36:36;;;;;;;45.47;18.05;;;;;;;21.92;7.85;98567.25;5035950;28;20485;-77
2021/01/18 10:39:04;;;;;;;50.15;18.75;;;;;;;21.87;7.98;98560.09;5060716;28;20066;-77
2021/01/18 10:41:32;;;;;;;59.55;21.83;;;;;;;21.80;7.88;98573.25;5057676;28;20029;-77
2021/01/18 10:44:05;;;;;;;49.80;19.70;;;;;;;22.07;7.93;98574.38;5047188;28;20014;-77
2021/01/18 10:46:31;;;;;;;30.73;12.25;;;;;;;22.06;7.82;98572.75;5054826;28;20079;-77
2021/01/18 10:48:59;;;;;;;40.25;15.07;;;;;;;21.68;8.01;98570.94;5053805;28;20061;-77
2021/01/18 10:51:26;;;;;;;36.70;13.63;;;;;;;22.01;8.02;98568.41;5049895;28;20029;-77
2021/01/18 10:53:59;;;;;;;41.80;16.02;;;;;;;22.06;8.09;98569.97;5045254;28;20048;-77
2021/01/18 10:56:35;;;;;;;40.15;17.30;;;;;;;22.38;7.82;98562.16;5048916;28;20033;-77
2021/01/18 10:59:01;;;;;;;41.08;16.33;;;;;;;22.63;7.55;98559.19;5047876;28;20083;-78
2021/01/18 11:01:27;;;;;;;38.30;16.33;;;;;;;22.80;7.87;98568.66;5045307;28;20030;-78
2021/01/18 11:04:02;;;;;;;36.83;15.20;;;;;;;22.74;7.74;98564.69;5044793;28;20142;-78
2021/01/18 11:06:33;;;;;;;40.72;17.35;;;;;;;22.68;7.45;98565.13;5048291;28;20548;-78
2021/01/18 11:08:59;;;;;;;;;;;;;;;22.28;7.48;98565.84;5047936;28;20033;-78
2021/01/18 11:11:29;;;;;;;36.53;16.45;;;;;;;22.14;7.88;98562.34;5040874;28;19970;-78
2021/01/18 11:14:06;;;;;;;28.02;12.07;;;;;;;22.09;8.24;98555.16;5045957;28;20045;-77
2021/01/18 11:16:33;;;;;;;34.85;12.95;;;;;;;22.58;8.10;98565.22;5043749;28;20039;-78
2021/01/18 11:19:06;;;;;;;36.92;16.08;;;;;;;22.50;7.94;98563.66;5048736;28;20133;-78
2021/01/18 11:21:32;;;;;;;33.53;13.10;;;;;;;22.77;7.90;98555.47;5051575;28;20067;-78
2021/01/18 11:23:59;;;;;;;38.60;14.85;;;;;;;22.44;7.78;98551.31;5050146;28;20541;-78
2021/01/18 11:26:25;;;;;;;35.50;13.27;;;;;;;22.72;8.02;98548.31;5050110;28;20025;-78
2021/01/18 11:28:52;;;;;;;30.95;13.05;;;;;;;22.24;7.74;98545.47;5044399;28;20034;-78
2021/01/18 11:31:18;;;;;;;31.30;11.55;;;;;;;21.94;8.41;98551.66;5050235;28;20037;-78
2021/01/18 11:33:44;;;;;;;29.60;12.32;;;;;;;22.46;8.02;98537.72;5043691;28;20025;-78
2021/01/18 11:36:11;;;;;;;28.90;11.80;;;;;;;22.00;8.09;98543.66;5045215;28;20433;-78
2021/01/18 11:38:38;;;;;;;31.40;12.48;;;;;;;21.27;8.27;98540.75;5048455;28;20386;-78
2021/01/18 11:41:04;;;;;;;29.92;12.40;;;;;;;19.36;9.23;98541.00;5042078;28;20067;-78
2021/01/18 11:43:34;;;;;;;19.70;9.25;;;;;;;18.69;9.77;98543.38;5040186;28;20030;-78
2021/01/18 11:46:01;;;;;;;32.67;12.55;;;;;;;14.56;12.98;98552.69;5043220;28;20686;-78
2021/01/18 11:48:27;;;;;;;37.00;13.07;;;;;;;14.85;12.40;98549.41;5051941;28;20029;-78
2021/01/18 11:50:55;;;;;;;28.20;11.95;;;;;;;15.58;12.30;98544.69;5042442;28;20036;-79
2021/01/18 11:53:21;;;;;;;32.63;12.07;;;;;;;14.74;12.87;98546.41;5045999;28;21501;-78
2021/01/18 11:55:49;;;;;;;34.38;14.40;;;;;;;13.35;13.85;98537.69;5051277;28;20026;-78
2021/01/18 11:58:15;;;;;;;32.22;12.13;;;;;;;14.26;12.83;98539.31;5048036;28;20029;-78
2021/01/18 12:00:41;;;;;;;33.78;13.82;;;;;;;15.28;11.80;98543.66;5042613;28;20113;-78